createdAt,value
2017-11-24T00:00:08.319Z,59.70
2017-11-24T00:01:45.572Z,59.00
2017-11-24T00:03:22.762Z,58.30
2017-11-24T00:04:59.751Z,58.00
2017-11-24T00:06:36.685Z,58.40
2017-11-24T00:08:13.609Z,58.80
2017-11-24T00:09:51.146Z,58.70
2017-11-24T00:11:28.149Z,59.20
2017-11-24T00:13:04.952Z,59.00
2017-11-24T00:14:43.903Z,58.80
2017-11-24T00:16:22.387Z,59.10
2017-11-24T00:18:01.590Z,59.20
2017-11-24T00:19:42.980Z,59.20
2017-11-24T00:21:20.157Z,59.80
2017-11-24T00:22:58.577Z,59.20
2017-11-24T00:24:35.815Z,59.00
2017-11-24T00:26:13.730Z,60.10
2017-11-24T00:27:50.537Z,59.90
2017-11-24T00:29:27.916Z,60.00
2017-11-24T00:31:04.872Z,60.20
2017-11-24T00:32:42.412Z,59.30
2017-11-24T00:34:21.034Z,59.30
2017-11-24T00:35:58.614Z,59.40
2017-11-24T00:37:35.424Z,60.50
2017-11-24T00:39:12.434Z,59.90
2017-11-24T00:40:50.310Z,59.30
2017-11-24T00:42:29.263Z,58.80
2017-11-24T00:44:06.678Z,59.40
2017-11-24T00:45:45.045Z,59.20
2017-11-24T00:47:26.899Z,59.60
2017-11-24T00:49:08.193Z,60.10
2017-11-24T00:50:49.296Z,60.00
2017-11-24T00:52:26.861Z,59.80
2017-11-24T00:54:11.148Z,61.20
2017-11-24T00:56:05.451Z,62.00
2017-11-24T00:57:43.923Z,61.30
2017-11-24T00:59:21.193Z,60.50
2017-11-24T01:00:59.451Z,63.40
2017-11-24T01:02:37.750Z,63.40
2017-11-24T01:04:16.373Z,62.30
2017-11-24T01:05:53.293Z,64.00
2017-11-24T01:07:31.508Z,64.90
2017-11-24T01:09:09.865Z,64.90
2017-11-24T01:10:47.608Z,64.40
2017-11-24T01:12:33.537Z,64.50
2017-11-24T01:16:28.844Z,64.60
2017-11-24T01:18:10.074Z,64.80
2017-11-24T01:19:48.411Z,62.50
2017-11-24T01:21:25.380Z,61.70
2017-11-24T01:23:04.707Z,60.70
2017-11-24T01:24:42.614Z,60.70
2017-11-24T01:26:22.648Z,61.70
2017-11-24T01:27:59.575Z,61.80
2017-11-24T01:29:40.466Z,62.40
2017-11-24T01:31:19.372Z,62.70
2017-11-24T01:32:59.738Z,62.40
2017-11-24T01:34:42.945Z,60.50
2017-11-24T01:36:25.477Z,60.50
2017-11-24T01:38:02.558Z,61.50
2017-11-24T01:39:39.888Z,61.80
2017-11-24T01:41:17.435Z,62.00
2017-11-24T01:42:54.512Z,63.80
2017-11-24T01:44:31.684Z,66.30
2017-11-24T01:46:09.658Z,66.90
2017-11-24T01:47:49.970Z,69.30
2017-11-24T01:49:27.071Z,71.00
2017-11-24T01:51:04.786Z,72.90
2017-11-24T01:52:42.554Z,72.80
2017-11-24T01:54:19.666Z,74.90
2017-11-24T01:55:58.863Z,78.10
2017-11-24T01:57:36.340Z,81.80
2017-11-24T01:59:14.370Z,83.00
2017-11-24T02:00:53.524Z,83.80
2017-11-24T02:02:32.506Z,84.80
2017-11-24T02:04:11.325Z,84.70
2017-11-24T02:05:50.642Z,85.10
2017-11-24T02:07:28.676Z,84.70
2017-11-24T02:09:07.397Z,85.30
2017-11-24T02:10:45.229Z,86.40
2017-11-24T02:12:22.728Z,87.80
2017-11-24T02:14:22.553Z,89.30
2017-11-24T02:16:01.733Z,90.20
2017-11-24T02:17:39.361Z,90.20
2017-11-24T02:19:16.524Z,90.70
2017-11-24T02:20:53.509Z,91.40
2017-11-24T02:22:30.538Z,91.90
2017-11-24T02:24:08.066Z,92.60
2017-11-24T02:25:45.421Z,93.20
2017-11-24T02:27:22.818Z,93.20
2017-11-24T02:29:00.365Z,93.20
2017-11-24T02:30:38.420Z,93.10
2017-11-24T02:32:16.176Z,92.90
2017-11-24T02:33:53.391Z,93.20
2017-11-24T02:35:30.550Z,93.20
2017-11-24T02:37:08.294Z,93.20
2017-11-24T02:38:46.550Z,93.00
2017-11-24T02:40:23.823Z,92.80
2017-11-24T02:42:00.821Z,91.40
2017-11-24T02:43:39.135Z,90.10
2017-11-24T02:45:19.239Z,87.90
2017-11-24T02:46:58.317Z,86.90
2017-11-24T02:48:36.847Z,86.70
2017-11-24T02:50:14.258Z,85.00
2017-11-24T02:51:52.027Z,82.00
2017-11-24T02:53:29.002Z,82.00
2017-11-24T02:55:06.813Z,81.80
2017-11-24T02:56:49.169Z,84.50
2017-11-24T02:58:27.531Z,84.60
2017-11-24T03:00:06.702Z,86.20
2017-11-24T03:01:44.108Z,89.40
2017-11-24T03:03:21.208Z,90.50
2017-11-24T03:04:59.070Z,91.10
2017-11-24T03:06:35.858Z,91.10
2017-11-24T03:08:12.977Z,91.40
2017-11-24T03:09:51.577Z,91.40
2017-11-24T03:11:30.827Z,90.10
2017-11-24T03:13:08.039Z,90.10
2017-11-24T03:14:45.578Z,90.30
2017-11-24T03:16:23.298Z,90.20
2017-11-24T03:18:01.663Z,90.40
2017-11-24T03:19:38.622Z,90.30
2017-11-24T03:21:15.619Z,86.70
2017-11-24T03:22:53.574Z,83.30
2017-11-24T03:24:32.798Z,81.00
2017-11-24T03:26:12.009Z,80.90
2017-11-24T03:27:52.499Z,80.50
2017-11-24T03:29:29.757Z,81.40
2017-11-24T03:31:07.611Z,84.70
2017-11-24T03:32:44.590Z,87.20
2017-11-24T03:34:21.408Z,89.20
2017-11-24T03:36:00.301Z,90.40
2017-11-24T03:37:37.280Z,90.40
2017-11-24T03:39:14.730Z,90.30
2017-11-24T03:40:51.753Z,90.40
2017-11-24T03:42:29.150Z,90.70
2017-11-24T03:44:06.118Z,90.70
2017-11-24T03:45:44.342Z,91.30
2017-11-24T03:47:21.350Z,91.90
2017-11-24T03:48:58.144Z,92.30
2017-11-24T03:50:36.542Z,92.90
2017-11-24T03:52:13.375Z,92.80
2017-11-24T03:53:52.686Z,92.90
2017-11-24T03:55:31.000Z,92.90
2017-11-24T03:57:07.767Z,93.60
2017-11-24T03:58:44.683Z,93.50
2017-11-24T04:00:24.011Z,93.30
2017-11-24T04:02:03.220Z,94.10
2017-11-24T04:03:40.465Z,94.80
2017-11-24T04:05:17.536Z,95.50
2017-11-24T04:06:55.559Z,96.60
2017-11-24T04:08:36.330Z,96.40
2017-11-24T04:10:16.135Z,96.30
2017-11-24T04:11:56.047Z,96.00
2017-11-24T04:13:33.359Z,95.90
2017-11-24T04:15:10.309Z,95.80
2017-11-24T04:16:47.485Z,95.20
2017-11-24T04:18:25.172Z,95.10
2017-11-24T04:20:04.761Z,94.90
2017-11-24T04:21:42.988Z,94.90
2017-11-24T04:23:21.048Z,94.30
2017-11-24T04:24:58.069Z,94.30
2017-11-24T04:26:35.316Z,93.80
2017-11-24T04:28:12.189Z,93.30
2017-11-24T04:29:49.528Z,93.20
2017-11-24T04:31:27.374Z,93.50
2017-11-24T04:33:05.377Z,93.10
2017-11-24T04:34:42.177Z,92.40
2017-11-24T04:36:22.101Z,90.30
2017-11-24T04:38:00.353Z,88.40
2017-11-24T04:39:40.141Z,89.00
2017-11-24T04:41:18.845Z,89.10
2017-11-24T04:42:55.994Z,92.00
2017-11-24T04:44:36.147Z,93.20
2017-11-24T04:46:16.534Z,92.60
2017-11-24T04:47:55.844Z,92.60
2017-11-24T04:49:36.135Z,92.00
2017-11-24T04:51:14.781Z,92.40
2017-11-24T04:52:52.154Z,92.30
2017-11-24T04:54:29.647Z,92.60
2017-11-24T04:56:08.503Z,93.30
2017-11-24T04:57:47.097Z,94.80
2017-11-24T04:59:24.401Z,94.80
2017-11-24T05:01:01.253Z,94.60
2017-11-24T05:02:38.102Z,92.80
2017-11-24T05:04:14.965Z,92.10
2017-11-24T05:05:52.527Z,90.50
2017-11-24T05:07:30.146Z,90.40
2017-11-24T05:09:07.537Z,90.30
2017-11-24T05:10:44.750Z,90.10
2017-11-24T05:12:22.649Z,90.50
2017-11-24T05:14:00.273Z,91.00
2017-11-24T05:15:37.117Z,89.80
2017-11-24T05:17:14.393Z,88.10
2017-11-24T05:18:52.462Z,88.00
2017-11-24T05:20:29.946Z,89.20
2017-11-24T05:22:06.775Z,88.10
2017-11-24T05:23:44.119Z,85.20
2017-11-24T05:25:22.575Z,83.10
2017-11-24T05:27:00.930Z,83.10
2017-11-24T05:28:38.634Z,84.80
2017-11-24T05:30:17.924Z,84.00
2017-11-24T05:31:56.395Z,82.80
2017-11-24T05:33:33.182Z,82.60
2017-11-24T05:35:10.063Z,81.70
2017-11-24T05:36:49.476Z,81.10
2017-11-24T05:38:26.316Z,82.10
2017-11-24T05:40:05.158Z,83.00
2017-11-24T05:41:44.030Z,83.00
2017-11-24T05:43:23.834Z,85.50
2017-11-24T05:45:02.741Z,85.50
2017-11-24T05:46:40.093Z,86.40
2017-11-24T05:48:17.904Z,84.40
2017-11-24T05:49:55.555Z,87.10
2017-11-24T05:51:32.302Z,87.10
2017-11-24T05:53:10.328Z,90.00
2017-11-24T05:54:47.256Z,90.00
2017-11-24T05:56:25.071Z,88.80
2017-11-24T05:58:02.088Z,89.30
2017-11-24T05:59:42.187Z,88.90
2017-11-24T06:01:21.075Z,89.50
2017-11-24T06:02:59.979Z,88.10
2017-11-24T06:04:40.650Z,85.90
2017-11-24T06:06:18.318Z,85.50
2017-11-24T06:07:56.787Z,84.90
2017-11-24T06:09:34.118Z,84.90
2017-11-24T06:11:12.626Z,84.00
2017-11-24T06:12:50.351Z,85.00
2017-11-24T06:14:27.645Z,85.00
2017-11-24T06:16:05.778Z,86.10
2017-11-24T06:17:42.735Z,86.10
2017-11-24T06:19:19.586Z,86.60
2017-11-24T06:20:57.211Z,86.40
2017-11-24T06:22:34.637Z,86.40
2017-11-24T06:24:12.581Z,83.80
2017-11-24T06:25:50.287Z,84.90
2017-11-24T06:27:27.998Z,83.90
2017-11-24T06:29:05.480Z,83.90
2017-11-24T06:30:43.187Z,81.80
2017-11-24T06:32:21.334Z,81.80
2017-11-24T06:33:58.266Z,83.00
2017-11-24T06:35:35.448Z,80.30
2017-11-24T06:37:12.271Z,81.80
2017-11-24T06:38:49.097Z,82.90
2017-11-24T06:40:26.851Z,82.90
2017-11-24T06:42:04.943Z,83.90
2017-11-24T06:43:42.297Z,84.70
2017-11-24T06:45:19.698Z,85.70
2017-11-24T06:46:56.737Z,86.10
2017-11-24T06:48:35.770Z,85.50
2017-11-24T06:50:13.775Z,88.60
2017-11-24T06:51:51.505Z,88.80
2017-11-24T06:53:28.358Z,88.80
2017-11-24T06:55:06.400Z,87.20
2017-11-24T06:56:43.233Z,87.30
2017-11-24T06:58:20.529Z,86.60
2017-11-24T06:59:58.949Z,82.30
2017-11-24T07:01:37.552Z,82.00
2017-11-24T07:03:14.494Z,81.80
2017-11-24T07:04:52.446Z,80.50
2017-11-24T07:06:29.314Z,80.10
2017-11-24T07:08:06.751Z,80.00
2017-11-24T07:09:44.558Z,82.20
2017-11-24T07:11:24.099Z,81.40
2017-11-24T07:13:01.005Z,81.90
2017-11-24T07:14:38.402Z,82.70
2017-11-24T07:16:15.709Z,83.60
2017-11-24T07:17:55.696Z,82.10
2017-11-24T07:19:34.776Z,84.30
2017-11-24T07:21:14.479Z,84.80
2017-11-24T07:22:55.689Z,85.60
2017-11-24T07:24:34.690Z,84.10
2017-11-24T07:26:11.627Z,84.10
2017-11-24T07:27:49.731Z,83.80
2017-11-24T07:29:28.068Z,83.50
2017-11-24T07:31:05.535Z,83.60
2017-11-24T07:32:43.326Z,85.20
2017-11-24T07:34:24.639Z,84.70
2017-11-24T07:36:04.425Z,87.60
2017-11-24T07:37:43.328Z,89.80
2017-11-24T07:39:21.384Z,90.80
2017-11-24T07:40:58.447Z,90.70
2017-11-24T07:42:36.866Z,88.80
2017-11-24T07:44:13.935Z,85.00
2017-11-24T07:45:51.057Z,84.00
2017-11-24T07:47:29.863Z,82.20
2017-11-24T07:49:10.533Z,81.00
2017-11-24T07:50:47.636Z,80.30
2017-11-24T07:52:25.301Z,81.80
2017-11-24T07:54:03.665Z,82.50
2017-11-24T07:55:41.788Z,83.70
2017-11-24T07:57:20.341Z,85.60
2017-11-24T07:58:59.107Z,85.40
2017-11-24T08:00:37.471Z,85.60
2017-11-24T08:02:16.642Z,80.00
2017-11-24T08:03:57.837Z,80.90
2017-11-24T08:05:34.798Z,80.90
2017-11-24T08:07:12.157Z,81.50
2017-11-24T08:08:48.963Z,82.30
2017-11-24T08:10:27.385Z,82.10
2017-11-24T08:12:06.430Z,82.80
2017-11-24T08:13:50.847Z,83.90
2017-11-24T08:15:31.964Z,84.20
2017-11-24T08:17:09.615Z,83.70
2017-11-24T08:18:46.590Z,83.70
2017-11-24T08:20:23.708Z,83.50
2017-11-24T08:22:01.021Z,83.20
2017-11-24T08:23:40.936Z,82.80
2017-11-24T08:27:08.971Z,83.80
2017-11-24T08:28:47.381Z,82.70
2017-11-24T08:30:26.748Z,80.00
2017-11-24T08:32:05.095Z,80.00
2017-11-24T08:33:42.632Z,80.00
2017-11-24T08:35:19.503Z,81.40
2017-11-24T08:36:56.380Z,78.90
2017-11-24T08:38:34.716Z,80.00
2017-11-24T08:40:11.600Z,79.10
2017-11-24T08:41:48.466Z,78.30
2017-11-24T08:43:25.255Z,78.90
2017-11-24T08:45:03.404Z,80.00
2017-11-24T08:46:44.413Z,80.00
2017-11-24T08:50:31.117Z,80.00
2017-11-24T08:52:07.914Z,80.10
2017-11-24T08:53:44.752Z,81.20
2017-11-24T08:55:21.486Z,82.30
2017-11-24T08:56:58.772Z,80.20
2017-11-24T08:58:36.497Z,80.30
2017-11-24T09:00:16.274Z,78.70
2017-11-24T09:01:54.359Z,77.70
2017-11-24T09:03:32.667Z,76.50
2017-11-24T09:05:10.628Z,76.70
2017-11-24T09:06:48.172Z,81.00
2017-11-24T09:08:25.949Z,81.00
2017-11-24T09:10:03.307Z,80.20
2017-11-24T09:11:40.962Z,81.10
2017-11-24T09:13:19.350Z,81.10
2017-11-24T09:14:57.925Z,81.10
2017-11-24T09:16:37.137Z,79.40
2017-11-24T09:18:14.092Z,80.40
2017-11-24T09:21:34.574Z,79.60
2017-11-24T09:23:11.630Z,81.30
2017-11-24T09:24:49.261Z,79.20
2017-11-24T09:26:26.228Z,79.20
2017-11-24T09:28:05.152Z,79.90
2017-11-24T09:29:45.259Z,77.60
2017-11-24T09:31:25.554Z,78.40
2017-11-24T09:33:02.540Z,78.00
2017-11-24T09:34:39.481Z,78.50
2017-11-24T09:36:16.829Z,79.70
2017-11-24T09:37:53.761Z,78.70
2017-11-24T09:39:31.322Z,79.30
2017-11-24T09:41:08.872Z,79.60
2017-11-24T09:42:46.344Z,81.20
2017-11-24T09:44:23.133Z,78.30
2017-11-24T09:46:00.891Z,76.80
2017-11-24T09:47:37.874Z,76.70
2017-11-24T09:49:15.241Z,76.10
2017-11-24T09:50:52.817Z,77.70
2017-11-24T09:52:30.462Z,77.50
2017-11-24T09:54:07.917Z,77.50
2017-11-24T09:55:44.920Z,75.70
2017-11-24T09:57:23.290Z,76.40
2017-11-24T09:59:00.737Z,79.20
2017-11-24T10:00:37.734Z,80.30
2017-11-24T10:02:15.077Z,81.50
2017-11-24T10:03:51.930Z,81.10
2017-11-24T10:05:30.560Z,78.00
2017-11-24T10:07:07.609Z,78.00
2017-11-24T10:08:44.961Z,78.40
2017-11-24T10:10:21.797Z,80.30
2017-11-24T10:12:00.710Z,82.30
2017-11-24T10:13:39.228Z,80.70
2017-11-24T10:15:20.903Z,77.10
2017-11-24T10:16:59.794Z,77.00
2017-11-24T10:18:37.178Z,77.20
2017-11-24T10:20:13.908Z,75.40
2017-11-24T10:21:56.374Z,76.50
2017-11-24T10:23:33.295Z,76.50
2017-11-24T10:25:13.475Z,74.00
2017-11-24T10:26:50.465Z,73.80
2017-11-24T10:28:29.496Z,74.80
2017-11-24T10:30:06.504Z,74.90
2017-11-24T10:31:43.690Z,73.40
2017-11-24T10:33:20.523Z,71.20
2017-11-24T10:34:58.530Z,72.70
2017-11-24T10:36:35.417Z,72.60
2017-11-24T10:38:12.163Z,71.10
2017-11-24T10:39:49.897Z,70.70
2017-11-24T10:41:27.265Z,71.20
2017-11-24T10:43:04.734Z,72.00
2017-11-24T10:44:42.845Z,73.40
2017-11-24T10:46:20.002Z,76.50
2017-11-24T10:47:59.293Z,76.60
2017-11-24T10:49:36.323Z,75.90
2017-11-24T10:51:14.090Z,75.00
2017-11-24T10:52:50.969Z,73.40
2017-11-24T10:54:28.314Z,72.10
2017-11-24T10:56:05.317Z,73.10
2017-11-24T10:57:44.629Z,75.50
2017-11-24T10:59:22.225Z,78.10
2017-11-24T11:00:59.044Z,78.80
2017-11-24T11:02:37.543Z,77.80
2017-11-24T11:04:15.995Z,75.70
2017-11-24T11:05:54.897Z,74.80
2017-11-24T11:07:33.898Z,75.00
2017-11-24T11:09:10.974Z,76.20
2017-11-24T11:10:47.709Z,76.60
2017-11-24T11:12:26.548Z,78.10
2017-11-24T11:14:04.992Z,78.10
2017-11-24T11:15:44.938Z,78.10
2017-11-24T11:17:22.166Z,77.40
2017-11-24T11:18:59.565Z,78.30
2017-11-24T11:20:36.762Z,78.60
2017-11-24T11:22:15.245Z,77.00
2017-11-24T11:23:52.608Z,75.70
2017-11-24T11:25:31.035Z,75.70
2017-11-24T11:27:08.911Z,75.10
2017-11-24T11:28:52.983Z,75.20
2017-11-24T11:30:35.781Z,73.70
2017-11-24T11:32:15.371Z,74.80
2017-11-24T11:33:55.274Z,75.60
2017-11-24T11:35:34.369Z,76.50
2017-11-24T11:37:12.036Z,74.30
2017-11-24T11:38:51.177Z,75.10
2017-11-24T11:40:29.292Z,75.90
2017-11-24T11:42:06.700Z,72.50
2017-11-24T11:43:44.516Z,74.10
2017-11-24T11:45:22.044Z,74.00
2017-11-24T11:47:02.244Z,74.70
2017-11-24T11:48:39.242Z,75.80
2017-11-24T11:50:16.183Z,74.40
2017-11-24T11:51:54.023Z,72.70
2017-11-24T11:53:32.048Z,72.70
2017-11-24T11:55:09.062Z,73.00
2017-11-24T11:56:45.982Z,73.80
2017-11-24T11:58:23.485Z,71.70
2017-11-24T12:00:01.531Z,72.20
2017-11-24T12:01:39.657Z,72.40
2017-11-24T12:03:16.847Z,75.20
2017-11-24T12:04:57.735Z,74.30
2017-11-24T12:06:34.932Z,73.30
2017-11-24T12:08:12.332Z,72.30
2017-11-24T12:09:51.415Z,73.50
2017-11-24T12:11:32.263Z,74.10
2017-11-24T12:13:12.963Z,72.10
2017-11-24T12:14:50.474Z,72.10
2017-11-24T12:16:28.923Z,73.00
2017-11-24T12:18:07.975Z,71.70
2017-11-24T12:19:45.836Z,71.30
2017-11-24T12:21:23.519Z,71.20
2017-11-24T12:23:02.392Z,70.10
2017-11-24T12:24:42.889Z,72.00
2017-11-24T12:26:19.893Z,72.00
2017-11-24T12:27:57.641Z,74.30
2017-11-24T12:29:35.242Z,74.90
2017-11-24T12:31:15.427Z,76.30
2017-11-24T12:32:52.632Z,77.10
2017-11-24T12:34:31.222Z,78.90
2017-11-24T12:36:13.818Z,78.60
2017-11-24T12:37:56.603Z,77.60
2017-11-24T12:39:39.054Z,77.20
2017-11-24T12:41:19.704Z,76.00
2017-11-24T12:43:01.762Z,77.70
2017-11-24T12:44:43.440Z,76.30
2017-11-24T12:46:27.247Z,76.40
2017-11-24T12:48:08.643Z,76.60
2017-11-24T12:49:54.168Z,74.40
2017-11-24T12:51:38.839Z,74.70
2017-11-24T12:53:21.533Z,75.10
2017-11-24T12:55:01.423Z,74.00
2017-11-24T12:56:43.651Z,74.70
2017-11-24T12:58:24.723Z,74.60
2017-11-24T13:00:11.633Z,76.10
2017-11-24T13:02:06.248Z,76.80
2017-11-24T13:03:47.666Z,76.60
2017-11-24T13:05:30.205Z,76.20
2017-11-24T13:07:17.288Z,75.80
2017-11-24T13:08:59.519Z,76.60
2017-11-24T13:10:43.093Z,76.30
2017-11-24T13:12:24.989Z,77.30
2017-11-24T13:14:09.146Z,76.00
2017-11-24T13:15:50.516Z,77.00
2017-11-24T13:17:38.392Z,77.10
2017-11-24T13:19:23.349Z,75.00
2017-11-24T13:21:09.130Z,73.80
2017-11-24T13:22:52.975Z,73.50
2017-11-24T13:24:35.049Z,73.10
2017-11-24T13:26:17.265Z,71.00
2017-11-24T13:27:57.140Z,69.60
2017-11-24T13:29:38.033Z,69.70
2017-11-24T13:31:20.788Z,69.40
2017-11-24T13:33:03.617Z,69.10
2017-11-24T13:34:47.029Z,69.20
2017-11-24T13:36:32.952Z,70.00
2017-11-24T13:38:21.410Z,69.80
2017-11-24T13:40:04.041Z,73.00
2017-11-24T13:41:48.515Z,73.00
2017-11-24T13:43:34.194Z,71.60
2017-11-24T13:45:20.402Z,71.90
2017-11-24T13:47:04.673Z,71.70
2017-11-24T13:48:46.985Z,74.10
2017-11-24T13:50:34.880Z,71.60
2017-11-24T13:52:22.639Z,71.90
2017-11-24T13:54:05.370Z,71.90
2017-11-24T13:55:51.757Z,71.90
2017-11-24T13:57:37.670Z,71.50
2017-11-24T13:59:21.970Z,71.40
2017-11-24T14:01:09.202Z,71.90
2017-11-24T14:02:53.254Z,71.90
2017-11-24T14:04:38.095Z,71.10
2017-11-24T14:06:19.921Z,70.20
2017-11-24T14:08:03.099Z,69.80
2017-11-24T14:09:51.721Z,69.80
2017-11-24T14:11:34.996Z,69.80
2017-11-24T14:13:25.288Z,71.90
2017-11-24T14:15:14.871Z,74.70
2017-11-24T14:16:58.162Z,72.70
2017-11-24T14:18:40.674Z,71.80
2017-11-24T14:20:28.817Z,70.00
2017-11-24T14:22:12.481Z,70.90
2017-11-24T14:24:01.151Z,69.20
2017-11-24T14:25:50.575Z,69.30
2017-11-24T14:27:35.184Z,71.10
2017-11-24T14:29:17.306Z,72.00
2017-11-24T14:31:05.852Z,73.60
2017-11-24T14:32:50.325Z,72.00
2017-11-24T14:34:37.804Z,72.10
2017-11-24T14:36:22.447Z,73.70
2017-11-24T14:38:01.143Z,72.70
2017-11-24T14:39:46.260Z,69.70
2017-11-24T14:41:33.583Z,69.50
2017-11-24T14:43:17.792Z,69.90
2017-11-24T14:45:06.182Z,69.90
2017-11-24T14:46:53.043Z,68.60
2017-11-24T14:48:41.767Z,70.30
2017-11-24T14:50:28.516Z,70.30
2017-11-24T14:52:12.706Z,70.60
2017-11-24T14:53:57.040Z,71.70
2017-11-24T14:55:42.107Z,71.30
2017-11-24T14:57:31.604Z,68.20
2017-11-24T14:59:23.599Z,68.10
2017-11-24T15:01:08.931Z,68.10
2017-11-24T15:02:54.059Z,69.20
2017-11-24T15:04:41.735Z,69.80
2017-11-24T15:06:25.654Z,69.80
2017-11-24T15:08:13.535Z,68.10
2017-11-24T15:09:58.584Z,66.10
2017-11-24T15:11:41.533Z,66.10
2017-11-24T15:13:26.600Z,65.70
2017-11-24T15:15:12.061Z,66.50
2017-11-24T15:17:03.495Z,66.60
2017-11-24T15:18:49.499Z,68.10
2017-11-24T15:20:41.505Z,67.10
2017-11-24T15:22:28.893Z,66.20
2017-11-24T15:30:06.698Z,71.50
2017-11-24T15:32:00.296Z,69.50
2017-11-24T15:33:47.995Z,69.50
2017-11-24T15:35:42.106Z,69.10
2017-11-24T15:37:29.038Z,69.10
2017-11-24T15:39:20.047Z,68.30
2017-11-24T15:41:14.894Z,68.30
2017-11-24T15:43:06.217Z,67.50
2017-11-24T15:44:53.859Z,66.70
2017-11-24T15:46:40.209Z,67.80
2017-11-24T15:48:24.042Z,69.60
2017-11-24T15:50:11.149Z,70.10
2017-11-24T15:51:59.090Z,70.00
2017-11-24T15:53:43.225Z,70.00
2017-11-24T15:55:30.050Z,71.20
2017-11-24T15:57:18.759Z,70.60
2017-11-24T15:59:05.014Z,70.50
2017-11-24T16:00:51.722Z,71.80
2017-11-24T16:02:37.347Z,72.30
2017-11-24T16:04:21.803Z,74.00
2017-11-24T16:06:06.529Z,74.50
2017-11-24T16:07:52.992Z,74.70
2017-11-24T16:09:36.899Z,74.10
2017-11-24T16:11:30.677Z,78.30
2017-11-24T16:13:22.901Z,78.20
2017-11-24T16:15:08.880Z,79.70
2017-11-24T16:16:53.745Z,80.20
2017-11-24T16:18:39.599Z,77.50
2017-11-24T16:20:26.479Z,75.60
2017-11-24T16:22:10.099Z,75.60
2017-11-24T16:23:59.261Z,74.80
2017-11-24T16:25:43.394Z,76.30
2017-11-24T16:27:28.363Z,77.20
2017-11-24T16:29:11.988Z,77.00
2017-11-24T16:30:58.077Z,77.20
2017-11-24T16:32:41.776Z,78.20
2017-11-24T16:34:25.218Z,78.10
2017-11-24T16:36:07.543Z,79.70
2017-11-24T16:37:57.213Z,80.90
2017-11-24T16:39:43.440Z,81.20
2017-11-24T16:41:38.260Z,81.80
2017-11-24T16:43:26.361Z,82.40
2017-11-24T16:45:11.471Z,81.00
2017-11-24T16:46:55.870Z,80.30
2017-11-24T16:48:40.460Z,79.20
2017-11-24T16:50:28.240Z,82.00
2017-11-24T16:52:16.395Z,83.40
2017-11-24T16:54:00.521Z,83.40
2017-11-24T16:55:53.622Z,83.30
2017-11-24T16:57:39.551Z,82.60
2017-11-24T16:59:27.001Z,84.30
2017-11-24T17:01:11.019Z,84.30
2017-11-24T17:02:58.167Z,86.40
2017-11-24T17:04:43.642Z,87.60
2017-11-24T17:06:32.589Z,88.80
2017-11-24T17:08:22.413Z,88.70
2017-11-24T17:10:12.160Z,87.60
2017-11-24T17:11:58.914Z,84.90
2017-11-24T17:13:46.012Z,82.50
2017-11-24T17:15:36.021Z,80.90
2017-11-24T17:17:24.434Z,80.70
2017-11-24T17:19:22.349Z,81.40
2017-11-24T17:21:10.953Z,78.90
2017-11-24T17:22:57.785Z,78.80
2017-11-24T17:24:48.050Z,78.90
2017-11-24T17:26:34.164Z,76.90
2017-11-24T17:28:28.643Z,75.40
2017-11-24T17:30:16.121Z,74.00
2017-11-24T17:32:10.505Z,74.00
2017-11-24T17:34:06.635Z,76.80
2017-11-24T17:35:56.340Z,79.90
2017-11-24T17:37:53.245Z,80.80
2017-11-24T17:39:46.037Z,81.00
2017-11-24T17:41:37.394Z,81.90
2017-11-24T17:43:28.427Z,82.70
2017-11-24T17:45:11.398Z,83.00
2017-11-24T17:46:59.654Z,83.50
2017-11-24T17:48:45.493Z,84.10
2017-11-24T17:50:31.322Z,85.10
2017-11-24T17:52:16.929Z,85.60
2017-11-24T17:54:05.128Z,86.40
2017-11-24T17:55:50.315Z,87.30
2017-11-24T17:57:44.451Z,87.20
2017-11-24T17:59:37.128Z,85.90
2017-11-24T18:01:23.317Z,83.00
2017-11-24T18:03:12.065Z,80.60
2017-11-24T18:04:57.202Z,81.40
2017-11-24T18:06:43.755Z,77.80
2017-11-24T18:08:34.299Z,77.70
2017-11-24T18:10:21.164Z,76.10
2017-11-24T18:12:10.221Z,74.30
2017-11-24T18:13:57.758Z,74.20
2017-11-24T18:15:41.209Z,74.20
2017-11-24T18:17:35.596Z,72.90
2017-11-24T18:19:25.040Z,72.20
2017-11-24T18:21:11.011Z,71.30
2017-11-24T18:22:58.701Z,71.00
2017-11-24T18:24:43.265Z,70.80
2017-11-24T18:26:32.110Z,71.10
2017-11-24T18:28:19.915Z,70.40
2017-11-24T18:30:10.431Z,70.80
2017-11-24T18:31:55.456Z,70.80
2017-11-24T18:33:42.201Z,69.60
2017-11-24T18:35:26.902Z,69.50
2017-11-24T18:37:17.562Z,69.60
2017-11-24T18:39:11.207Z,69.60
2017-11-24T18:40:58.595Z,70.10
2017-11-24T18:42:46.907Z,70.20
2017-11-24T18:46:22.739Z,72.60
2017-11-24T18:48:09.638Z,72.10
2017-11-24T18:50:04.166Z,71.70
2017-11-24T18:55:57.419Z,73.60
2017-11-24T18:57:47.560Z,72.30
2017-11-24T18:59:33.486Z,70.90
2017-11-24T19:01:18.282Z,69.80
2017-11-24T19:03:02.747Z,69.30
2017-11-24T19:04:50.326Z,69.70
2017-11-24T19:06:35.915Z,70.40
2017-11-24T19:08:21.575Z,70.30
2017-11-24T19:10:07.524Z,69.40
2017-11-24T19:11:51.815Z,68.60
2017-11-24T19:13:35.143Z,68.30
2017-11-24T19:15:22.213Z,68.30
2017-11-24T19:17:23.076Z,69.00
2017-11-24T19:19:13.610Z,69.00
2017-11-24T19:20:59.568Z,69.50
2017-11-24T19:22:44.859Z,69.90
2017-11-24T19:24:36.879Z,69.70
2017-11-24T19:26:24.865Z,69.60
2017-11-24T19:28:10.592Z,70.00
2017-11-24T19:30:11.898Z,70.00
2017-11-24T19:32:01.413Z,69.40
2017-11-24T19:33:47.128Z,69.60
2017-11-24T19:35:35.528Z,69.30
2017-11-24T19:37:24.846Z,70.30
2017-11-24T19:39:09.919Z,71.80
2017-11-24T19:40:54.326Z,71.70
2017-11-24T19:42:41.110Z,72.40
2017-11-24T19:44:25.295Z,74.20
2017-11-24T19:46:16.505Z,76.10
2017-11-24T19:48:05.702Z,76.10
2017-11-24T19:49:49.663Z,78.20
2017-11-24T19:51:43.780Z,78.20
2017-11-24T19:53:28.656Z,78.70
2017-11-24T19:55:18.915Z,79.00
2017-11-24T19:57:09.384Z,79.00
2017-11-24T19:58:55.990Z,79.90
2017-11-24T20:00:42.659Z,81.40
2017-11-24T20:02:32.505Z,82.80
2017-11-24T20:04:16.708Z,84.20
2017-11-24T20:06:05.943Z,85.50
2017-11-24T20:07:52.553Z,85.90
2017-11-24T20:09:39.495Z,87.70
2017-11-24T20:11:23.357Z,88.00
2017-11-24T20:13:12.982Z,88.40
2017-11-24T20:15:05.708Z,87.90
2017-11-24T20:16:52.576Z,86.70
2017-11-24T20:18:43.373Z,85.30
2017-11-24T20:20:33.427Z,83.70
2017-11-24T20:22:20.800Z,83.40
2017-11-24T20:24:07.561Z,82.40
2017-11-24T20:25:49.258Z,82.30
2017-11-24T20:27:38.609Z,83.60
2017-11-24T20:29:22.247Z,83.60
2017-11-24T20:31:16.038Z,85.40
2017-11-24T20:33:01.298Z,85.40
2017-11-24T20:34:48.843Z,84.50
2017-11-24T20:36:39.137Z,84.40
2017-11-24T20:38:22.457Z,82.90
2017-11-24T20:40:05.500Z,80.80
2017-11-24T20:41:51.288Z,79.60
2017-11-24T20:43:48.510Z,78.50
2017-11-24T20:45:41.677Z,77.00
2017-11-24T20:47:30.582Z,77.50
2017-11-24T20:49:15.461Z,80.00
2017-11-24T20:51:03.382Z,82.20
2017-11-24T20:52:50.349Z,83.60
2017-11-24T20:54:38.632Z,84.00
2017-11-24T20:56:24.910Z,85.90
2017-11-24T20:58:18.585Z,85.90
2017-11-24T21:00:02.964Z,88.60
2017-11-24T21:01:49.150Z,90.70
2017-11-24T21:03:32.939Z,90.70
2017-11-24T21:05:17.338Z,91.10
2017-11-24T21:07:03.166Z,91.20
2017-11-24T21:08:52.878Z,91.60
2017-11-24T21:10:42.310Z,91.30
2017-11-24T21:12:30.159Z,92.10
2017-11-24T21:14:15.223Z,92.10
2017-11-24T21:16:00.878Z,92.50
2017-11-24T21:17:48.481Z,92.60
2017-11-24T21:19:31.789Z,92.30
2017-11-24T21:21:18.693Z,92.10
2017-11-24T21:23:03.813Z,91.30
2017-11-24T21:24:45.649Z,91.20
2017-11-24T21:26:30.337Z,91.10
2017-11-24T21:28:15.040Z,89.70
2017-11-24T21:29:58.634Z,90.30
2017-11-24T21:31:41.835Z,88.90
2017-11-24T21:33:30.862Z,88.90
2017-11-24T21:35:15.391Z,87.60
2017-11-24T21:36:59.921Z,87.30
2017-11-24T21:38:44.111Z,87.70
2017-11-24T21:40:27.656Z,87.40
2017-11-24T21:42:09.851Z,90.50
2017-11-24T21:43:51.659Z,90.50
2017-11-24T21:45:37.793Z,91.10
2017-11-24T21:47:23.675Z,91.60
2017-11-24T21:49:09.956Z,92.30
2017-11-24T21:50:53.086Z,92.50
2017-11-24T21:52:36.096Z,92.50
2017-11-24T21:54:21.561Z,92.30
2017-11-24T21:56:03.869Z,92.30
2017-11-24T21:57:44.125Z,92.50
2017-11-24T21:59:23.518Z,92.70
2017-11-24T22:01:01.670Z,92.90
2017-11-24T22:02:40.664Z,92.70
2017-11-24T22:04:20.583Z,92.40
2017-11-24T22:05:58.574Z,92.20
2017-11-24T22:07:42.339Z,92.30